createdAt,value
2023-01-11T00:01:51.431Z,5.83
2023-01-11T00:04:18.530Z,5.93
2023-01-11T00:06:45.306Z,6.06
2023-01-11T00:09:12.198Z,6.11
2023-01-11T00:11:38.723Z,6.10
2023-01-11T00:14:05.313Z,6.00
2023-01-11T00:16:31.880Z,6.13
2023-01-11T00:18:58.409Z,6.13
2023-01-11T00:21:26.819Z,6.19
2023-01-11T00:23:53.431Z,6.30
2023-01-11T00:26:19.946Z,6.37
2023-01-11T00:28:48.426Z,6.15
2023-01-11T00:31:15.151Z,6.20
2023-01-11T00:33:41.743Z,6.29
2023-01-11T00:36:08.487Z,6.19
2023-01-11T00:38:44.162Z,6.29
2023-01-11T00:41:29.564Z,6.51
2023-01-11T00:44:14.805Z,6.59
2023-01-11T00:47:00.148Z,6.68
2023-01-11T00:49:26.762Z,6.59
2023-01-11T00:51:53.298Z,6.68
2023-01-11T00:54:20.370Z,6.68
2023-01-11T00:56:47.341Z,6.87
2023-01-11T00:59:14.076Z,6.84
2023-01-11T01:01:40.680Z,6.70
2023-01-11T01:04:07.291Z,6.89
2023-01-11T01:06:33.880Z,6.86
2023-01-11T01:09:00.457Z,6.86
2023-01-11T01:11:33.100Z,6.73
2023-01-11T01:14:19.837Z,6.75
2023-01-11T01:16:47.389Z,7.15
2023-01-11T01:19:14.029Z,7.04
2023-01-11T01:21:40.642Z,6.83
2023-01-11T01:24:07.268Z,6.82
2023-01-11T01:26:33.782Z,6.93
2023-01-11T01:29:01.025Z,7.01
2023-01-11T01:31:27.791Z,7.14
2023-01-11T01:33:54.377Z,6.94
2023-01-11T01:36:21.013Z,6.99
2023-01-11T01:38:47.786Z,7.03
2023-01-11T01:41:14.525Z,7.11
2023-01-11T01:43:47.577Z,7.17
2023-01-11T01:46:14.708Z,7.12
2023-01-11T01:48:41.387Z,7.26
2023-01-11T01:51:07.951Z,7.06
2023-01-11T01:53:38.333Z,7.03
2023-01-11T01:56:06.411Z,7.21
2023-01-11T01:58:38.268Z,7.23
2023-01-11T02:01:23.605Z,7.29
2023-01-11T02:03:50.175Z,7.03
2023-01-11T02:06:16.713Z,7.09
2023-01-11T02:08:43.825Z,7.07
2023-01-11T02:11:29.978Z,7.02
2023-01-11T02:14:17.164Z,7.09
2023-01-11T02:16:43.805Z,7.11
2023-01-11T02:19:10.846Z,7.08
2023-01-11T02:21:40.567Z,7.14
2023-01-11T02:24:09.927Z,7.19
2023-01-11T02:26:42.046Z,7.12
2023-01-11T02:29:08.582Z,7.27
2023-01-11T02:31:37.989Z,7.24
2023-01-11T02:34:04.568Z,7.21
2023-01-11T02:36:49.889Z,7.42
2023-01-11T02:39:33.527Z,7.22
2023-01-11T02:42:30.990Z,7.11
2023-01-11T02:45:17.331Z,7.20
2023-01-11T02:48:10.204Z,7.53
2023-01-11T02:50:45.189Z,7.61
2023-01-11T02:53:20.733Z,7.36
2023-01-11T02:55:48.762Z,7.44
2023-01-11T02:58:15.577Z,7.47
2023-01-11T03:00:42.252Z,7.59
2023-01-11T03:03:13.693Z,7.70
2023-01-11T03:05:42.532Z,7.62
2023-01-11T03:08:13.930Z,7.75
2023-01-11T03:10:40.957Z,7.78
2023-01-11T03:13:16.556Z,7.62
2023-01-11T03:15:53.914Z,7.58
2023-01-11T03:18:39.581Z,7.70
2023-01-11T03:21:08.894Z,7.65
2023-01-11T03:23:53.785Z,7.71
2023-01-11T03:26:25.181Z,7.65
2023-01-11T03:28:51.946Z,7.87
2023-01-11T03:31:27.729Z,7.75
2023-01-11T03:34:00.547Z,7.85
2023-01-11T03:36:28.566Z,7.77
2023-01-11T03:38:56.438Z,7.72
2023-01-11T03:41:24.781Z,7.88
2023-01-11T03:43:52.584Z,8.19
2023-01-11T03:46:21.088Z,8.10
2023-01-11T03:48:49.383Z,8.18
2023-01-11T03:51:17.386Z,8.15
2023-01-11T03:53:44.786Z,8.15
2023-01-11T03:56:11.876Z,8.19
2023-01-11T03:58:38.547Z,8.18
2023-01-11T04:01:05.647Z,8.16
2023-01-11T04:03:32.211Z,7.96
2023-01-11T04:06:00.177Z,8.10
2023-01-11T04:08:26.827Z,8.12
2023-01-11T04:10:54.053Z,8.08
2023-01-11T04:13:20.696Z,7.91
2023-01-11T04:15:47.314Z,8.07
2023-01-11T04:18:13.837Z,8.01
2023-01-11T04:20:40.524Z,8.10
2023-01-11T04:23:07.908Z,7.87
2023-01-11T04:25:34.489Z,8.04
2023-01-11T04:28:01.047Z,8.10
2023-01-11T04:30:27.584Z,7.97
2023-01-11T04:32:54.144Z,8.19
2023-01-11T04:35:20.752Z,7.91
2023-01-11T04:37:48.227Z,7.96
2023-01-11T04:40:14.883Z,8.01
2023-01-11T04:42:41.457Z,8.03
2023-01-11T04:45:08.317Z,8.13
2023-01-11T04:47:35.335Z,8.12
2023-01-11T04:50:01.983Z,8.05
2023-01-11T04:52:31.024Z,8.07
2023-01-11T04:54:57.572Z,8.03
2023-01-11T04:57:25.350Z,7.77
2023-01-11T04:59:51.874Z,7.69
2023-01-11T05:02:18.539Z,7.74
2023-01-11T05:04:45.237Z,7.73
2023-01-11T05:07:11.891Z,7.74
2023-01-11T05:09:38.479Z,7.66
2023-01-11T05:12:05.050Z,7.51
2023-01-11T05:14:31.581Z,7.54
2023-01-11T05:16:58.976Z,7.45
2023-01-11T05:19:25.589Z,7.60
2023-01-11T05:21:52.238Z,7.55
2023-01-11T05:24:18.784Z,7.60
2023-01-11T05:26:48.502Z,7.74
2023-01-11T05:29:16.518Z,7.59
2023-01-11T05:31:43.184Z,7.67
2023-01-11T05:34:10.387Z,7.60
2023-01-11T05:36:36.928Z,7.67
2023-01-11T05:39:04.363Z,7.50
2023-01-11T05:41:30.892Z,7.48
2023-01-11T05:44:16.233Z,7.61
2023-01-11T05:46:43.248Z,7.47
2023-01-11T05:49:10.236Z,7.43
2023-01-11T05:51:38.229Z,7.49
2023-01-11T05:54:05.419Z,7.51
2023-01-11T05:56:31.962Z,7.47
2023-01-11T05:58:58.502Z,7.52
2023-01-11T06:01:25.672Z,7.48
2023-01-11T06:03:52.465Z,7.38
2023-01-11T06:06:20.558Z,7.46
2023-01-11T06:08:47.108Z,7.42
2023-01-11T06:11:14.887Z,7.39
2023-01-11T06:13:41.565Z,7.48
2023-01-11T06:16:12.360Z,7.41
2023-01-11T06:18:39.835Z,7.45
2023-01-11T06:21:06.395Z,7.63
2023-01-11T06:23:33.784Z,7.65
2023-01-11T06:26:01.084Z,7.70
2023-01-11T06:28:27.648Z,7.70
2023-01-11T06:30:54.598Z,7.74
2023-01-11T06:33:21.737Z,7.66
2023-01-11T06:35:48.274Z,7.71
2023-01-11T06:38:15.314Z,7.62
2023-01-11T06:40:41.855Z,7.69
2023-01-11T06:43:08.812Z,7.76
2023-01-11T06:45:38.289Z,7.73
2023-01-11T06:48:05.448Z,7.78
2023-01-11T06:50:32.072Z,7.68
2023-01-11T06:52:59.404Z,7.72
2023-01-11T06:55:26.868Z,7.74
2023-01-11T06:57:53.388Z,7.67
2023-01-11T07:00:20.556Z,7.78
2023-01-11T07:02:47.574Z,7.77
2023-01-11T07:05:14.326Z,7.75
2023-01-11T07:07:41.270Z,7.75
2023-01-11T07:12:36.450Z,7.75
2023-01-11T07:15:03.732Z,7.58
2023-01-11T07:17:30.305Z,7.61
2023-01-11T07:19:56.881Z,7.65
2023-01-11T07:22:23.780Z,7.82
2023-01-11T07:24:50.915Z,7.77
2023-01-11T07:27:17.741Z,7.65
2023-01-11T07:29:44.380Z,7.75
2023-01-11T07:32:10.901Z,7.86
2023-01-11T07:34:37.874Z,7.98
2023-01-11T07:37:04.842Z,7.96
2023-01-11T07:39:42.959Z,8.04
2023-01-11T07:42:29.863Z,8.07
2023-01-11T07:44:56.453Z,8.15
2023-01-11T07:47:23.237Z,8.38
2023-01-11T07:49:49.881Z,8.45
2023-01-11T07:52:16.508Z,8.54
2023-01-11T07:54:43.053Z,8.58
2023-01-11T07:57:09.901Z,8.46
2023-01-11T07:59:36.578Z,8.55
2023-01-11T08:02:03.101Z,8.39
2023-01-11T08:04:29.921Z,8.66
2023-01-11T08:06:58.953Z,8.53
2023-01-11T08:09:25.643Z,8.48
2023-01-11T08:12:11.061Z,8.61
2023-01-11T08:14:39.337Z,8.71
2023-01-11T08:17:09.518Z,8.86
2023-01-11T08:19:36.221Z,8.83
2023-01-11T08:22:02.841Z,8.84
2023-01-11T08:24:29.448Z,8.85
2023-01-11T08:26:56.028Z,8.91
2023-01-11T08:29:22.867Z,8.87
2023-01-11T08:31:49.556Z,8.94
2023-01-11T08:34:16.097Z,9.00
2023-01-11T08:36:42.680Z,9.10
2023-01-11T08:39:09.390Z,8.94
2023-01-11T08:41:35.961Z,8.93
2023-01-11T08:44:02.549Z,8.87
2023-01-11T08:46:29.109Z,8.78
2023-01-11T08:48:55.661Z,8.83
2023-01-11T08:51:22.234Z,8.92
2023-01-11T08:53:48.787Z,8.98
2023-01-11T08:56:15.843Z,9.05
2023-01-11T08:58:42.479Z,9.05
2023-01-11T09:01:09.752Z,9.15
2023-01-11T09:03:36.357Z,9.11
2023-01-11T09:06:02.956Z,9.14
2023-01-11T09:08:29.923Z,8.98
2023-01-11T09:10:56.799Z,8.95
2023-01-11T09:13:23.387Z,9.06
2023-01-11T09:15:50.021Z,9.27
2023-01-11T09:18:16.609Z,9.23
2023-01-11T09:20:43.521Z,9.32
2023-01-11T09:23:10.093Z,9.40
2023-01-11T09:25:36.661Z,9.34
2023-01-11T09:28:04.158Z,9.32
2023-01-11T09:30:31.340Z,9.40
2023-01-11T09:32:58.385Z,9.43
2023-01-11T09:35:25.335Z,9.55
2023-01-11T09:37:53.985Z,9.51
2023-01-11T09:40:22.004Z,9.53
2023-01-11T09:42:49.230Z,9.49
2023-01-11T09:45:20.411Z,9.63
2023-01-11T09:47:47.080Z,9.69
2023-01-11T09:50:15.681Z,9.54
2023-01-11T09:52:43.886Z,9.73
2023-01-11T09:55:20.233Z,9.64
2023-01-11T09:57:47.345Z,9.73
2023-01-11T10:00:20.760Z,9.68
2023-01-11T10:03:06.173Z,9.61
2023-01-11T10:05:34.843Z,9.65
2023-01-11T10:18:31.765Z,9.98
2023-01-11T10:18:32.764Z,9.80
2023-01-11T10:20:01.631Z,9.83
2023-01-11T10:22:39.768Z,9.89
2023-01-11T10:25:18.985Z,9.93
2023-01-11T10:28:00.659Z,9.92
2023-01-11T10:30:49.646Z,9.86
2023-01-11T10:33:46.665Z,10.09
2023-01-11T10:36:55.690Z,9.93
2023-01-11T10:39:55.777Z,10.04
2023-01-11T10:42:26.443Z,10.07
2023-01-11T10:45:03.003Z,9.89
2023-01-11T10:47:30.947Z,10.13
2023-01-11T10:50:06.071Z,10.05
2023-01-11T10:52:41.678Z,10.00
2023-01-11T10:55:13.093Z,10.13
2023-01-11T10:57:59.280Z,10.22
2023-01-11T11:00:37.997Z,10.37
2023-01-11T11:03:08.647Z,10.15
2023-01-11T11:05:42.532Z,10.14
2023-01-11T11:08:30.157Z,10.10
2023-01-11T11:10:59.576Z,10.21
2023-01-11T11:13:26.084Z,10.12
2023-01-11T11:15:57.312Z,10.00
2023-01-11T11:18:24.135Z,10.24
2023-01-11T11:20:50.812Z,10.21
2023-01-11T11:23:18.316Z,10.10
2023-01-11T11:25:49.249Z,10.01
2023-01-11T11:28:28.202Z,10.21
2023-01-11T11:30:55.790Z,10.22
2023-01-11T11:33:35.966Z,10.06
2023-01-11T11:36:06.701Z,10.13
2023-01-11T11:38:37.486Z,10.28
2023-01-11T11:41:11.604Z,10.28
2023-01-11T11:43:39.794Z,10.42
2023-01-11T11:46:19.422Z,10.53
2023-01-11T11:49:04.957Z,10.62
2023-01-11T11:51:31.564Z,10.63
2023-01-11T11:53:58.167Z,10.53
2023-01-11T11:56:30.785Z,10.62
2023-01-11T11:58:57.838Z,10.53
2023-01-11T12:01:39.658Z,10.30
2023-01-11T12:04:12.439Z,10.39
2023-01-11T12:06:38.992Z,10.35
2023-01-11T12:09:05.561Z,10.40
2023-01-11T12:11:34.301Z,10.40
2023-01-11T12:14:06.864Z,10.38
2023-01-11T12:16:35.416Z,10.34
2023-01-11T12:19:02.028Z,10.40
2023-01-11T12:21:30.361Z,10.28
2023-01-11T12:24:10.690Z,10.14
2023-01-11T12:26:46.474Z,10.23
2023-01-11T12:29:25.472Z,10.33
2023-01-11T12:31:55.265Z,10.32
2023-01-11T12:34:22.020Z,10.29
2023-01-11T12:36:52.193Z,10.39
2023-01-11T12:39:25.732Z,10.43
2023-01-11T12:42:11.222Z,10.43
2023-01-11T12:44:41.933Z,10.48
2023-01-11T12:47:16.200Z,10.50
2023-01-11T12:49:59.208Z,10.52
2023-01-11T12:52:29.397Z,10.59
2023-01-11T12:55:02.333Z,10.65
2023-01-11T12:57:31.735Z,10.65
2023-01-11T13:00:10.906Z,10.65
2023-01-11T13:02:49.917Z,10.46
2023-01-11T13:05:35.323Z,10.55
2023-01-11T13:08:04.911Z,10.60
2023-01-11T13:10:40.452Z,10.45
2023-01-11T13:13:09.282Z,10.43
2023-01-11T13:15:43.347Z,10.40
2023-01-11T13:18:15.973Z,10.34
2023-01-11T13:21:00.593Z,10.57
2023-01-11T13:23:33.275Z,10.53
2023-01-11T13:26:01.459Z,10.61
2023-01-11T13:28:30.066Z,10.57
2023-01-11T13:30:59.272Z,10.63
2023-01-11T13:33:27.054Z,10.54
2023-01-11T13:35:55.772Z,10.59
2023-01-11T13:38:27.996Z,10.55
2023-01-11T13:40:55.595Z,10.64
2023-01-11T13:43:37.624Z,10.68
2023-01-11T13:46:19.805Z,10.48
2023-01-11T13:48:55.169Z,10.47
2023-01-11T13:51:25.016Z,10.55
2023-01-11T13:53:53.548Z,10.35
2023-01-11T13:56:43.524Z,10.41
2023-01-11T13:59:22.567Z,10.30
2023-01-11T14:01:50.839Z,10.22
2023-01-11T14:04:39.848Z,10.04
2023-01-11T14:07:22.211Z,10.33
2023-01-11T14:10:01.385Z,10.22
2023-01-11T14:12:31.310Z,10.01
2023-01-11T14:15:11.287Z,9.94
2023-01-11T14:17:56.963Z,9.85
2023-01-11T14:20:30.548Z,9.83
2023-01-11T14:22:57.090Z,9.67
2023-01-11T14:25:28.152Z,9.66
2023-01-11T14:28:03.813Z,9.92
2023-01-11T14:30:41.126Z,9.92
2023-01-11T14:33:12.681Z,9.86
2023-01-11T14:35:58.333Z,9.73
2023-01-11T14:38:28.131Z,9.73
2023-01-11T14:41:13.506Z,9.80
2023-01-11T14:43:59.460Z,9.73
2023-01-11T14:46:45.310Z,9.76
2023-01-11T14:49:30.742Z,9.68
2023-01-11T14:52:01.746Z,9.77
2023-01-11T14:54:29.226Z,9.56
2023-01-11T14:56:56.530Z,9.65
2023-01-11T14:59:26.278Z,9.68
2023-01-11T15:02:05.116Z,9.65
2023-01-11T15:04:35.514Z,9.39
2023-01-11T15:07:02.329Z,9.49
2023-01-11T15:09:48.470Z,9.47
2023-01-11T15:12:15.584Z,9.53
2023-01-11T15:14:49.551Z,9.47
2023-01-11T15:17:35.868Z,9.40
2023-01-11T15:20:09.427Z,9.40
2023-01-11T15:22:36.220Z,9.38
2023-01-11T15:25:21.849Z,9.59
2023-01-11T15:27:48.605Z,9.32
2023-01-11T15:30:35.133Z,9.27
2023-01-11T15:33:17.399Z,9.25
2023-01-11T15:35:56.104Z,9.37
2023-01-11T15:38:42.655Z,9.17
2023-01-11T15:41:29.786Z,9.20
2023-01-11T15:43:59.355Z,9.28
2023-01-11T15:46:44.539Z,9.27
2023-01-11T15:49:29.940Z,9.13
2023-01-11T15:52:15.438Z,9.31
2023-01-11T15:55:00.577Z,9.18
2023-01-11T15:57:29.934Z,9.33
2023-01-11T16:00:15.079Z,9.31
2023-01-11T16:03:08.992Z,9.17
2023-01-11T16:05:39.850Z,9.06
2023-01-11T16:08:06.678Z,9.06
2023-01-11T16:10:53.886Z,9.09
2023-01-11T16:13:29.776Z,9.13
2023-01-11T16:16:08.140Z,9.03
2023-01-11T16:18:35.550Z,9.09
2023-01-11T16:21:06.470Z,9.20
2023-01-11T16:23:33.183Z,8.94
2023-01-11T16:26:02.922Z,8.94
2023-01-11T16:28:29.600Z,9.06
2023-01-11T16:31:00.158Z,9.03
2023-01-11T16:33:27.541Z,8.90
2023-01-11T16:36:23.798Z,9.05
2023-01-11T16:39:16.421Z,8.90
2023-01-11T16:41:59.092Z,8.90
2023-01-11T16:44:33.451Z,8.86
2023-01-11T16:47:13.564Z,8.95
2023-01-11T16:49:42.428Z,8.79
2023-01-11T16:52:29.294Z,8.72
2023-01-11T16:54:56.438Z,8.78
2023-01-11T16:57:23.663Z,8.76
2023-01-11T17:00:00.777Z,8.83
2023-01-11T17:02:29.198Z,8.85
2023-01-11T17:04:55.777Z,8.65
2023-01-11T17:07:22.462Z,8.57
2023-01-11T17:09:49.096Z,8.76
2023-01-11T17:12:16.342Z,8.81
2023-01-11T17:15:01.660Z,8.77
2023-01-11T17:17:29.398Z,8.83
2023-01-11T17:19:59.337Z,8.60
2023-01-11T17:22:29.730Z,8.57
2023-01-11T17:25:00.415Z,8.85
2023-01-11T17:27:35.653Z,8.81
2023-01-11T17:30:03.025Z,8.99
2023-01-11T17:32:34.425Z,8.68
2023-01-11T17:35:04.367Z,8.72
2023-01-11T17:37:30.967Z,8.84
2023-01-11T17:39:57.604Z,9.00
2023-01-11T17:42:44.968Z,8.81
2023-01-11T17:45:22.266Z,8.78
2023-01-11T17:47:52.919Z,8.90
2023-01-11T17:50:29.700Z,8.76
2023-01-11T17:53:05.906Z,8.69
2023-01-11T17:55:41.605Z,8.65
2023-01-11T17:58:17.956Z,8.24
2023-01-11T18:00:47.286Z,8.05
2023-01-11T18:03:15.818Z,7.85
2023-01-11T18:05:42.804Z,7.85
2023-01-11T18:08:17.170Z,8.03
2023-01-11T18:10:52.602Z,7.36
2023-01-11T18:13:25.449Z,7.61
2023-01-11T18:15:52.020Z,7.80
2023-01-11T18:18:38.137Z,7.56
2023-01-11T18:21:24.768Z,7.59
2023-01-11T18:24:23.848Z,7.42
2023-01-11T18:27:05.203Z,7.29
2023-01-11T18:29:37.708Z,7.63
2023-01-11T18:32:04.706Z,7.53
2023-01-11T18:34:31.644Z,7.41
2023-01-11T18:39:57.843Z,7.58
2023-01-11T18:42:24.690Z,7.53
2023-01-11T18:44:51.417Z,7.37
2023-01-11T18:47:17.929Z,7.48
2023-01-11T18:49:44.597Z,7.40
2023-01-11T18:52:11.313Z,7.57
2023-01-11T18:54:38.040Z,7.56
2023-01-11T19:04:00.890Z,7.31
2023-01-11T19:06:29.076Z,7.19
2023-01-11T19:08:55.695Z,7.16
2023-01-11T19:11:25.598Z,7.11
2023-01-11T19:13:53.417Z,7.05
2023-01-11T19:16:19.995Z,6.93
2023-01-11T19:18:49.909Z,6.79
2023-01-11T19:21:16.510Z,6.70
2023-01-11T19:23:43.142Z,6.62
2023-01-11T19:26:09.724Z,6.54
2023-01-11T19:28:36.902Z,6.64
2023-01-11T19:31:11.425Z,6.71
2023-01-11T19:37:09.696Z,6.81
2023-01-11T19:39:36.512Z,6.63
2023-01-11T19:42:03.821Z,6.66
2023-01-11T19:44:33.984Z,6.74
2023-01-11T19:47:16.653Z,6.65
2023-01-11T19:49:43.479Z,6.98
2023-01-11T19:52:16.706Z,6.74
2023-01-11T19:54:45.665Z,6.70
2023-01-11T19:57:14.345Z,6.66
2023-01-11T19:59:41.288Z,6.90
2023-01-11T20:02:08.196Z,6.80
2023-01-11T20:04:34.866Z,6.80
2023-01-11T20:07:01.471Z,6.72
2023-01-11T20:09:28.291Z,6.80
2023-01-11T20:11:55.642Z,6.96
2023-01-11T20:14:22.207Z,6.85
2023-01-11T20:16:48.786Z,6.89
2023-01-11T20:19:15.505Z,6.81
2023-01-11T20:21:42.137Z,6.89
2023-01-11T20:24:11.372Z,6.78
2023-01-11T20:26:38.116Z,6.56
2023-01-11T20:29:06.418Z,6.47
2023-01-11T20:31:35.530Z,6.49
2023-01-11T20:34:06.044Z,6.54
2023-01-11T20:36:33.166Z,6.55
2023-01-11T20:38:59.849Z,6.41
2023-01-11T20:41:46.048Z,6.47
2023-01-11T20:44:16.893Z,6.45
2023-01-11T20:46:45.735Z,6.44
2023-01-11T20:49:14.415Z,6.36
2023-01-11T20:51:41.011Z,6.34
2023-01-11T20:54:07.856Z,6.37
2023-01-11T20:56:36.933Z,6.43
2023-01-11T20:59:03.558Z,6.40
2023-01-11T21:01:30.992Z,6.36
2023-01-11T21:03:59.056Z,6.35
2023-01-11T21:06:25.611Z,6.31
2023-01-11T21:08:56.210Z,6.26
2023-01-11T21:11:22.772Z,6.17
2023-01-11T21:13:51.113Z,6.13
2023-01-11T21:16:17.709Z,5.99
2023-01-11T21:18:44.795Z,5.83
2023-01-11T21:21:11.966Z,5.77
2023-01-11T21:23:38.539Z,6.01
2023-01-11T21:26:07.416Z,6.06
2023-01-11T21:28:33.975Z,5.76
2023-01-11T21:31:01.714Z,5.73
2023-01-11T21:33:29.300Z,5.76
2023-01-11T21:35:57.608Z,5.84
2023-01-11T21:38:24.210Z,5.86
2023-01-11T21:40:51.184Z,5.84
2023-01-11T21:43:18.108Z,5.78
2023-01-11T21:45:44.797Z,5.81
2023-01-11T21:48:11.356Z,5.79
2023-01-11T21:50:38.181Z,5.94
2023-01-11T21:53:04.766Z,5.94
2023-01-11T21:55:31.351Z,5.90
2023-01-11T21:57:57.966Z,5.83
2023-01-11T22:00:24.695Z,5.99
2023-01-11T22:02:51.306Z,5.78
2023-01-11T22:05:17.884Z,6.06
2023-01-11T22:07:44.412Z,6.10
2023-01-11T22:10:12.420Z,6.13
2023-01-11T22:12:38.976Z,5.98
2023-01-11T22:15:05.725Z,5.85
2023-01-11T22:17:32.267Z,5.91
2023-01-11T22:19:58.791Z,5.78
2023-01-11T22:22:25.570Z,5.86
2023-01-11T22:24:52.088Z,5.68
2023-01-11T22:27:18.625Z,5.39
2023-01-11T22:29:45.417Z,5.45
2023-01-11T22:32:11.993Z,5.39
2023-01-11T22:34:39.485Z,5.43
2023-01-11T22:37:06.652Z,5.43
2023-01-11T22:39:33.292Z,5.48
2023-01-11T22:41:59.878Z,5.54
2023-01-11T22:44:26.441Z,5.70
2023-01-11T22:46:53.021Z,5.80
2023-01-11T22:49:19.775Z,5.75
2023-01-11T22:51:46.383Z,5.94
2023-01-11T22:54:13.270Z,5.85
2023-01-11T22:56:39.834Z,5.73
2023-01-11T22:59:06.693Z,5.82
2023-01-11T23:01:39.876Z,5.84
2023-01-11T23:04:07.134Z,5.98
2023-01-11T23:06:37.787Z,5.91
2023-01-11T23:09:05.163Z,5.92
2023-01-11T23:11:50.917Z,5.85
2023-01-11T23:14:18.513Z,5.84
2023-01-11T23:16:45.443Z,5.77
2023-01-11T23:19:12.517Z,5.96
2023-01-11T23:21:39.744Z,5.88
2023-01-11T23:24:06.419Z,5.55
2023-01-11T23:26:33.026Z,5.41
2023-01-11T23:28:59.571Z,5.50
2023-01-11T23:31:26.378Z,5.52
2023-01-11T23:33:54.495Z,5.52
2023-01-11T23:36:21.816Z,5.45
2023-01-11T23:38:48.833Z,5.35
2023-01-11T23:41:34.709Z,5.17
2023-01-11T23:44:01.780Z,5.10
2023-01-11T23:46:46.783Z,5.10
2023-01-11T23:49:16.358Z,5.11
2023-01-11T23:51:42.994Z,4.96
2023-01-11T23:54:09.665Z,4.88
2023-01-11T23:56:36.300Z,4.91
2023-01-11T23:59:03.382Z,4.76
